sensor_id;sensor_type;location;lat;lon;timestamp;pressure;altitude;pressure_sealevel;temperature;humidity
3150;BME280;32503;47.748;8.960;2022-12-07T00:01:42;96933.25;;;4.69;71.61
3150;BME280;32503;47.748;8.960;2022-12-07T00:04:13;96935.16;;;4.69;71.82
3150;BME280;32503;47.748;8.960;2022-12-07T00:06:42;96928.56;;;4.75;71.50
3150;BME280;32503;47.748;8.960;2022-12-07T00:09:12;96928.72;;;4.79;71.33
3150;BME280;32503;47.748;8.960;2022-12-07T00:11:39;96930.28;;;4.80;71.49
3150;BME280;32503;47.748;8.960;2022-12-07T00:14:10;96927.44;;;4.76;71.45
3150;BME280;32503;47.748;8.960;2022-12-07T00:16:39;96930.59;;;4.78;71.38
3150;BME280;32503;47.748;8.960;2022-12-07T00:19:07;96932.19;;;4.79;71.30
3150;BME280;32503;47.748;8.960;2022-12-07T00:21:35;96930.59;;;4.78;71.64
3150;BME280;32503;47.748;8.960;2022-12-07T00:24:05;96898.78;;;4.59;71.41
3150;BME280;32503;47.748;8.960;2022-12-07T00:26:34;96926.97;;;4.74;71.59
3150;BME280;32503;47.748;8.960;2022-12-07T00:29:04;96938.63;;;4.78;71.88
3150;BME280;32503;47.748;8.960;2022-12-07T00:31:33;96935.47;;;4.76;71.75
3150;BME280;32503;47.748;8.960;2022-12-07T00:34:06;96929.97;;;4.72;71.96
3150;BME280;32503;47.748;8.960;2022-12-07T00:36:33;96923.66;;;4.68;72.00
3150;BME280;32503;47.748;8.960;2022-12-07T00:39:00;96926.19;;;4.73;72.08
3150;BME280;32503;47.748;8.960;2022-12-07T00:41:29;96929.50;;;4.79;71.71
3150;BME280;32503;47.748;8.960;2022-12-07T00:43:56;96927.13;;;4.78;71.83
3150;BME280;32503;47.748;8.960;2022-12-07T00:46:24;96925.41;;;4.73;71.81
3150;BME280;32503;47.748;8.960;2022-12-07T00:48:52;96901.47;;;4.59;71.97
3150;BME280;32503;47.748;8.960;2022-12-07T00:51:23;96929.97;;;4.72;71.80
3150;BME280;32503;47.748;8.960;2022-12-07T00:53:51;96923.06;;;4.71;72.21
3150;BME280;32503;47.748;8.960;2022-12-07T00:56:20;96896.56;;;4.52;72.21
3150;BME280;32503;47.748;8.960;2022-12-07T00:58:51;96927.75;;;4.74;71.76
3150;BME280;32503;47.748;8.960;2022-12-07T01:01:18;96929.03;;;4.68;72.16
3150;BME280;32503;47.748;8.960;2022-12-07T01:03:45;96940.06;;;4.75;71.71
3150;BME280;32503;47.748;8.960;2022-12-07T01:06:15;96933.28;;;4.78;72.22
3150;BME280;32503;47.748;8.960;2022-12-07T01:08:44;96929.50;;;4.79;71.89
3150;BME280;32503;47.748;8.960;2022-12-07T01:11:15;96930.59;;;4.78;72.02
3150;BME280;32503;47.748;8.960;2022-12-07T01:13:43;96928.56;;;4.75;71.92
3150;BME280;32503;47.748;8.960;2022-12-07T01:16:12;96926.97;;;4.74;72.29
3150;BME280;32503;47.748;8.960;2022-12-07T01:18:40;96922.41;;;4.74;71.95
3150;BME280;32503;47.748;8.960;2022-12-07T01:21:11;96922.09;;;4.76;72.27
3150;BME280;32503;47.748;8.960;2022-12-07T01:23:39;96923.22;;;4.75;72.22
3150;BME280;32503;47.748;8.960;2022-12-07T01:26:12;96916.56;;;4.81;72.15
3150;BME280;32503;47.748;8.960;2022-12-07T01:28:39;96922.56;;;4.87;71.80
3150;BME280;32503;47.748;8.960;2022-12-07T01:31:08;96924.31;;;4.91;71.68
3150;BME280;32503;47.748;8.960;2022-12-07T01:33:38;96928.56;;;4.92;71.29
3150;BME280;32503;47.748;8.960;2022-12-07T01:36:12;96931.06;;;4.98;71.71
3150;BME280;32503;47.748;8.960;2022-12-07T01:38:40;96924.16;;;4.97;70.87
3150;BME280;32503;47.748;8.960;2022-12-07T01:41:08;96926.53;;;4.98;71.17
3150;BME280;32503;47.748;8.960;2022-12-07T01:43:36;96923.22;;;4.92;71.33
3150;BME280;32503;47.748;8.960;2022-12-07T01:46:04;96922.72;;;4.90;71.44
3150;BME280;32503;47.748;8.960;2022-12-07T01:48:34;96918.00;;;4.96;71.76
3150;BME280;32503;47.748;8.960;2022-12-07T01:51:08;96926.38;;;4.94;71.16
3150;BME280;32503;47.748;8.960;2022-12-07T01:53:37;96916.91;;;4.97;71.46
3150;BME280;32503;47.748;8.960;2022-12-07T01:56:08;96928.06;;;4.99;71.23
3150;BME280;32503;47.748;8.960;2022-12-07T01:58:37;96928.88;;;5.00;70.93
3150;BME280;32503;47.748;8.960;2022-12-07T02:01:04;96918.16;;;5.00;71.38
3150;BME280;32503;47.748;8.960;2022-12-07T02:03:34;96925.41;;;4.99;71.22
3150;BME280;32503;47.748;8.960;2022-12-07T02:06:03;96921.16;;;4.98;71.21
3150;BME280;32503;47.748;8.960;2022-12-07T02:08:31;96919.09;;;4.95;71.26
3150;BME280;32503;47.748;8.960;2022-12-07T02:10:59;96913.91;;;4.99;71.17
3150;BME280;32503;47.748;8.960;2022-12-07T02:13:31;96915.19;;;5.01;70.88
3150;BME280;32503;47.748;8.960;2022-12-07T02:16:21;96922.88;;;5.03;71.04
3150;BME280;32503;47.748;8.960;2022-12-07T02:19:03;96904.63;;;5.05;70.96
3150;BME280;32503;47.748;8.960;2022-12-07T02:21:45;96909.81;;;5.01;70.61
3150;BME280;32503;47.748;8.960;2022-12-07T02:24:45;96911.22;;;4.99;70.71
3150;BME280;32503;47.748;8.960;2022-12-07T02:27:38;96903.50;;;4.97;70.89
3150;BME280;32503;47.748;8.960;2022-12-07T02:30:09;96911.69;;;5.01;71.27
3150;BME280;32503;47.748;8.960;2022-12-07T02:32:47;96903.66;;;5.01;70.89
3150;BME280;32503;47.748;8.960;2022-12-07T02:35:20;96908.53;;;4.99;70.63
3150;BME280;32503;47.748;8.960;2022-12-07T02:37:57;96905.56;;;4.91;70.89
3150;BME280;32503;47.748;8.960;2022-12-07T02:40:31;96914.22;;;4.88;71.14
3150;BME280;32503;47.748;8.960;2022-12-07T02:43:06;96907.75;;;4.89;71.22
3150;BME280;32503;47.748;8.960;2022-12-07T02:45:38;96898.94;;;4.89;70.91
3150;BME280;32503;47.748;8.960;2022-12-07T02:48:08;96905.72;;;4.86;71.54
3150;BME280;32503;47.748;8.960;2022-12-07T02:50:36;96907.63;;;4.86;71.39
3150;BME280;32503;47.748;8.960;2022-12-07T02:53:03;96906.19;;;4.88;71.14
3150;BME280;32503;47.748;8.960;2022-12-07T02:55:37;96908.06;;;4.88;71.59
3150;BME280;32503;47.748;8.960;2022-12-07T02:58:26;96900.19;;;4.83;71.50
3150;BME280;32503;47.748;8.960;2022-12-07T03:01:07;96906.34;;;4.83;71.51
3150;BME280;32503;47.748;8.960;2022-12-07T03:03:37;96909.31;;;4.82;71.57
3150;BME280;32503;47.748;8.960;2022-12-07T03:06:13;96902.09;;;4.82;71.63
3150;BME280;32503;47.748;8.960;2022-12-07T03:08:51;96907.28;;;4.79;71.52
3150;BME280;32503;47.748;8.960;2022-12-07T03:11:25;96898.44;;;4.78;71.54
3150;BME280;32503;47.748;8.960;2022-12-07T03:14:01;96901.47;;;4.85;71.35
3150;BME280;32503;47.748;8.960;2022-12-07T03:16:36;96901.13;;;4.87;71.41
3150;BME280;32503;47.748;8.960;2022-12-07T03:19:09;96906.66;;;4.90;71.34
3150;BME280;32503;47.748;8.960;2022-12-07T03:21:41;96908.69;;;4.93;71.18
3150;BME280;32503;47.748;8.960;2022-12-07T03:24:13;96902.41;;;4.89;71.33
3150;BME280;32503;47.748;8.960;2022-12-07T03:26:46;96902.41;;;4.89;71.68
3150;BME280;32503;47.748;8.960;2022-12-07T03:29:20;96896.28;;;4.89;71.52
3150;BME280;32503;47.748;8.960;2022-12-07T03:31:56;96905.56;;;4.91;71.89
3150;BME280;32503;47.748;8.960;2022-12-07T03:34:31;96901.78;;;4.92;71.56
3150;BME280;32503;47.748;8.960;2022-12-07T03:37:03;96912.66;;;4.96;71.78
3150;BME280;32503;47.748;8.960;2022-12-07T03:39:37;96906.50;;;4.96;72.03
3150;BME280;32503;47.748;8.960;2022-12-07T03:42:08;96909.31;;;4.90;72.64
3150;BME280;32503;47.748;8.960;2022-12-07T03:44:38;96907.28;;;4.87;73.10
3150;BME280;32503;47.748;8.960;2022-12-07T03:47:12;96896.28;;;4.89;72.77
3150;BME280;32503;47.748;8.960;2022-12-07T03:49:45;96885.06;;;4.78;72.97
3150;BME280;32503;47.748;8.960;2022-12-07T03:52:21;96888.03;;;4.94;72.91
3150;BME280;32503;47.748;8.960;2022-12-07T03:54:56;96889.47;;;4.91;72.97
3150;BME280;32503;47.748;8.960;2022-12-07T03:57:26;96899.25;;;4.87;72.99
3150;BME280;32503;47.748;8.960;2022-12-07T03:59:55;96895.16;;;4.81;73.66
3150;BME280;32503;47.748;8.960;2022-12-07T04:02:27;96897.53;;;4.83;73.35
3150;BME280;32503;47.748;8.960;2022-12-07T04:04:56;96885.06;;;4.78;73.46
3150;BME280;32503;47.748;8.960;2022-12-07T04:07:23;96888.69;;;4.91;73.60
3150;BME280;32503;47.748;8.960;2022-12-07T04:09:50;96901.28;;;4.90;73.60
3150;BME280;32503;47.748;8.960;2022-12-07T04:12:18;96892.94;;;4.92;73.40
3150;BME280;32503;47.748;8.960;2022-12-07T04:14:45;96895.78;;;4.96;73.55
3150;BME280;32503;47.748;8.960;2022-12-07T04:17:12;96895.47;;;4.97;73.58
3150;BME280;32503;47.748;8.960;2022-12-07T04:19:40;96897.66;;;5.04;72.85
3150;BME280;32503;47.748;8.960;2022-12-07T04:22:07;96889.16;;;4.93;73.48
3150;BME280;32503;47.748;8.960;2022-12-07T04:24:35;96890.88;;;4.98;73.14
3150;BME280;32503;47.748;8.960;2022-12-07T04:27:02;96888.69;;;5.00;73.56
3150;BME280;32503;47.748;8.960;2022-12-07T04:29:29;96885.53;;;4.98;73.51
3150;BME280;32503;47.748;8.960;2022-12-07T04:31:56;96890.72;;;5.03;73.11
3150;BME280;32503;47.748;8.960;2022-12-07T04:34:23;96889.94;;;5.02;73.33
3150;BME280;32503;47.748;8.960;2022-12-07T04:36:52;96884.44;;;4.99;73.47
3150;BME280;32503;47.748;8.960;2022-12-07T04:39:22;96886.03;;;5.00;73.27
3150;BME280;32503;47.748;8.960;2022-12-07T04:41:50;96888.03;;;5.03;73.64
3150;BME280;32503;47.748;8.960;2022-12-07T04:44:18;96892.47;;;4.99;73.84
3150;BME280;32503;47.748;8.960;2022-12-07T04:46:46;96885.53;;;4.98;73.85
3150;BME280;32503;47.748;8.960;2022-12-07T04:49:14;96889.94;;;5.02;73.40
3150;BME280;32503;47.748;8.960;2022-12-07T04:51:42;96886.03;;;5.00;73.41
3150;BME280;32503;47.748;8.960;2022-12-07T04:54:11;96898.28;;;5.01;73.22
3150;BME280;32503;47.748;8.960;2022-12-07T04:56:38;96892.16;;;5.00;73.38
3150;BME280;32503;47.748;8.960;2022-12-07T04:59:05;96899.88;;;5.02;73.60
3150;BME280;32503;47.748;8.960;2022-12-07T05:01:33;96886.66;;;4.97;73.70
3150;BME280;32503;47.748;8.960;2022-12-07T05:04:01;96894.84;;;5.00;73.40
3150;BME280;32503;47.748;8.960;2022-12-07T05:06:28;96889.00;;;4.98;73.60
3150;BME280;32503;47.748;8.960;2022-12-07T05:08:55;96888.03;;;5.03;73.41
3150;BME280;32503;47.748;8.960;2022-12-07T05:11:23;96884.28;;;5.04;73.27
3150;BME280;32503;47.748;8.960;2022-12-07T05:14:18;96883.03;;;5.01;73.51
3150;BME280;32503;47.748;8.960;2022-12-07T05:16:49;96887.72;;;5.04;73.46
3150;BME280;32503;47.748;8.960;2022-12-07T05:19:18;96887.72;;;5.04;73.43
3150;BME280;32503;47.748;8.960;2022-12-07T05:21:45;96883.81;;;5.02;73.52
3150;BME280;32503;47.748;8.960;2022-12-07T05:24:14;96880.00;;;5.03;73.54
3150;BME280;32503;47.748;8.960;2022-12-07T05:26:44;96887.88;;;5.08;72.88
3150;BME280;32503;47.748;8.960;2022-12-07T05:29:12;96888.19;;;5.06;73.40
3150;BME280;32503;47.748;8.960;2022-12-07T05:31:40;96886.00;;;5.08;73.09
3150;BME280;32503;47.748;8.960;2022-12-07T05:34:07;96885.38;;;5.03;72.98
3150;BME280;32503;47.748;8.960;2022-12-07T05:36:34;96887.88;;;5.08;72.96
3150;BME280;32503;47.748;8.960;2022-12-07T05:39:02;96886.78;;;5.09;73.15
3150;BME280;32503;47.748;8.960;2022-12-07T05:41:29;96876.69;;;5.06;73.20
3150;BME280;32503;47.748;8.960;2022-12-07T05:44:15;96877.81;;;5.05;73.44
3150;BME280;32503;47.748;8.960;2022-12-07T05:46:42;96888.19;;;5.06;73.21
3150;BME280;32503;47.748;8.960;2022-12-07T05:49:09;96883.94;;;5.05;73.23
3150;BME280;32503;47.748;8.960;2022-12-07T05:51:37;96889.78;;;5.07;73.28
3150;BME280;32503;47.748;8.960;2022-12-07T05:54:04;96893.69;;;5.10;73.08
3150;BME280;32503;47.748;8.960;2022-12-07T05:56:31;96894.06;;;5.08;73.31
3150;BME280;32503;47.748;8.960;2022-12-07T05:58:58;96889.16;;;5.02;73.51
3150;BME280;32503;47.748;8.960;2022-12-07T06:01:44;96895.13;;;5.07;73.24
3150;BME280;32503;47.748;8.960;2022-12-07T06:04:11;96899.72;;;5.07;73.21
3150;BME280;32503;47.748;8.960;2022-12-07T06:06:38;96894.69;;;5.05;73.21
3150;BME280;32503;47.748;8.960;2022-12-07T06:09:05;96896.06;;;5.03;73.06
3150;BME280;32503;47.748;8.960;2022-12-07T06:11:32;96901.44;;;5.03;73.44
3150;BME280;32503;47.748;8.960;2022-12-07T06:14:16;96901.28;;;4.99;72.93
3150;BME280;32503;47.748;8.960;2022-12-07T06:16:45;96909.31;;;4.90;73.70
3150;BME280;32503;47.748;8.960;2022-12-07T06:19:12;96911.84;;;4.96;73.26
3150;BME280;32503;47.748;8.960;2022-12-07T06:21:39;96899.41;;;5.00;73.52
3150;BME280;32503;47.748;8.960;2022-12-07T06:24:06;96913.28;;;5.02;73.25
3150;BME280;32503;47.748;8.960;2022-12-07T06:26:33;96902.25;;;5.03;73.35
3150;BME280;32503;47.748;8.960;2022-12-07T06:29:00;96907.91;;;5.02;73.55
3150;BME280;32503;47.748;8.960;2022-12-07T06:31:28;96908.38;;;5.04;73.47
3150;BME280;32503;47.748;8.960;2022-12-07T06:33:59;96907.75;;;5.07;73.42
3150;BME280;32503;47.748;8.960;2022-12-07T06:36:26;96892.94;;;5.01;73.48
3150;BME280;32503;47.748;8.960;2022-12-07T06:38:53;96901.59;;;5.06;73.34
3150;BME280;32503;47.748;8.960;2022-12-07T06:41:20;96906.16;;;5.06;73.38
3150;BME280;32503;47.748;8.960;2022-12-07T06:43:48;96897.81;;;5.07;73.41
3150;BME280;32503;47.748;8.960;2022-12-07T06:46:15;96896.38;;;5.10;73.60
3150;BME280;32503;47.748;8.960;2022-12-07T06:48:43;96906.94;;;5.15;73.19
3150;BME280;32503;47.748;8.960;2022-12-07T06:51:11;96888.69;;;5.08;73.02
3150;BME280;32503;47.748;8.960;2022-12-07T06:53:38;96900.03;;;5.14;73.21
3150;BME280;32503;47.748;8.960;2022-12-07T06:56:06;96896.88;;;5.12;72.99
3150;BME280;32503;47.748;8.960;2022-12-07T06:58:33;96900.34;;;5.12;73.07
3150;BME280;32503;47.748;8.960;2022-12-07T07:01:00;96901.94;;;5.13;73.25
3150;BME280;32503;47.748;8.960;2022-12-07T07:03:28;96907.09;;;5.19;72.82
3150;BME280;32503;47.748;8.960;2022-12-07T07:05:55;96901.28;;;5.17;72.52
3150;BME280;32503;47.748;8.960;2022-12-07T07:08:24;96902.56;;;5.10;73.10
3150;BME280;32503;47.748;8.960;2022-12-07T07:10:51;96905.84;;;5.07;73.06
3150;BME280;32503;47.748;8.960;2022-12-07T07:13:18;96911.84;;;5.13;72.89
3150;BME280;32503;47.748;8.960;2022-12-07T07:15:45;96913.88;;;5.16;73.21
3150;BME280;32503;47.748;8.960;2022-12-07T07:18:12;96908.53;;;5.16;73.21
3150;BME280;32503;47.748;8.960;2022-12-07T07:20:40;96905.84;;;5.16;72.82
3150;BME280;32503;47.748;8.960;2022-12-07T07:23:07;96908.69;;;5.20;72.53
3150;BME280;32503;47.748;8.960;2022-12-07T07:25:35;96915.28;;;5.22;72.89
3150;BME280;32503;47.748;8.960;2022-12-07T07:28:03;96913.25;;;5.19;72.97
3150;BME280;32503;47.748;8.960;2022-12-07T07:30:31;96921.00;;;5.21;73.08
3150;BME280;32503;47.748;8.960;2022-12-07T07:32:58;96913.72;;;5.21;72.69
3150;BME280;32503;47.748;8.960;2022-12-07T07:35:25;96910.44;;;5.16;73.06
3150;BME280;32503;47.748;8.960;2022-12-07T07:37:52;96918.78;;;5.23;72.87
3150;BME280;32503;47.748;8.960;2022-12-07T07:40:19;96924.44;;;5.21;72.88
3150;BME280;32503;47.748;8.960;2022-12-07T07:42:50;96920.16;;;5.29;72.56
3150;BME280;32503;47.748;8.960;2022-12-07T07:45:18;96927.75;;;5.27;72.78
3150;BME280;32503;47.748;8.960;2022-12-07T07:47:45;96927.13;;;5.30;72.88
3150;BME280;32503;47.748;8.960;2022-12-07T07:50:13;96931.84;;;5.33;73.07
3150;BME280;32503;47.748;8.960;2022-12-07T07:52:41;96920.97;;;5.29;73.14
3150;BME280;32503;47.748;8.960;2022-12-07T07:55:08;96924.13;;;5.31;72.69
3150;BME280;32503;47.748;8.960;2022-12-07T07:57:37;96934.19;;;5.35;72.67
3150;BME280;32503;47.748;8.960;2022-12-07T08:00:09;96916.72;;;5.28;72.80
3150;BME280;32503;47.748;8.960;2022-12-07T08:02:36;96929.78;;;5.39;73.19
3150;BME280;32503;47.748;8.960;2022-12-07T08:05:05;96921.91;;;5.34;72.91
3150;BME280;32503;47.748;8.960;2022-12-07T08:07:32;96929.16;;;5.42;72.83
3150;BME280;32503;47.748;8.960;2022-12-07T08:09:59;96931.84;;;5.42;72.40
3150;BME280;32503;47.748;8.960;2022-12-07T08:12:26;96931.50;;;5.43;72.84
3150;BME280;32503;47.748;8.960;2022-12-07T08:14:53;96926.78;;;5.40;72.53
3150;BME280;32503;47.748;8.960;2022-12-07T08:17:21;96930.09;;;5.46;72.48
3150;BME280;32503;47.748;8.960;2022-12-07T08:19:48;96927.41;;;5.46;72.24
3150;BME280;32503;47.748;8.960;2022-12-07T08:22:15;96941.13;;;5.53;72.15
3150;BME280;32503;47.748;8.960;2022-12-07T08:24:42;96934.16;;;5.52;72.45
3150;BME280;32503;47.748;8.960;2022-12-07T08:27:09;96945.53;;;5.49;72.43
3150;BME280;32503;47.748;8.960;2022-12-07T08:29:36;96944.56;;;5.54;72.29
3150;BME280;32503;47.748;8.960;2022-12-07T08:32:04;96951.66;;;5.58;72.12
3150;BME280;32503;47.748;8.960;2022-12-07T08:34:32;96944.72;;;5.57;72.77
3150;BME280;32503;47.748;8.960;2022-12-07T08:37:00;96935.75;;;5.53;72.98
3150;BME280;32503;47.748;8.960;2022-12-07T08:39:27;96949.63;;;5.55;72.27
3150;BME280;32503;47.748;8.960;2022-12-07T08:41:54;96946.00;;;5.60;72.23
3150;BME280;32503;47.748;8.960;2022-12-07T08:44:21;96942.03;;;5.66;72.78
3150;BME280;32503;47.748;8.960;2022-12-07T08:46:51;96942.97;;;5.70;72.59
3150;BME280;32503;47.748;8.960;2022-12-07T08:49:23;96941.06;;;5.70;72.42
3150;BME280;32503;47.748;8.960;2022-12-07T08:51:53;96936.16;;;5.73;72.84
3150;BME280;32503;47.748;8.960;2022-12-07T08:54:21;96941.38;;;5.78;72.38
3150;BME280;32503;47.748;8.960;2022-12-07T08:56:50;96940.91;;;5.76;72.75
3150;BME280;32503;47.748;8.960;2022-12-07T08:59:18;96943.56;;;5.84;71.96
3150;BME280;32503;47.748;8.960;2022-12-07T09:01:45;96939.56;;;5.91;71.65
3150;BME280;32503;47.748;8.960;2022-12-07T09:04:13;96943.84;;;5.92;72.46
3150;BME280;32503;47.748;8.960;2022-12-07T09:06:41;96956.44;;;5.91;71.87
3150;BME280;32503;47.748;8.960;2022-12-07T09:09:11;96947.47;;;5.96;71.95
3150;BME280;32503;47.748;8.960;2022-12-07T09:11:39;96948.75;;;5.98;71.69
3150;BME280;32503;47.748;8.960;2022-12-07T09:14:06;96954.00;;;6.54;73.13
3150;BME280;32503;47.748;8.960;2022-12-07T09:16:33;96961.22;;;7.26;73.94
3150;BME280;32503;47.748;8.960;2022-12-07T09:19:00;96946.59;;;7.14;71.72
3150;BME280;32503;47.748;8.960;2022-12-07T09:21:27;96945.03;;;7.13;71.46
3150;BME280;32503;47.748;8.960;2022-12-07T09:23:54;96958.28;;;6.97;71.12
3150;BME280;32503;47.748;8.960;2022-12-07T09:26:22;96952.41;;;6.83;70.61
3150;BME280;32503;47.748;8.960;2022-12-07T09:28:49;96961.34;;;6.66;70.16
3150;BME280;32503;47.748;8.960;2022-12-07T09:31:17;96960.81;;;6.52;70.29
3150;BME280;32503;47.748;8.960;2022-12-07T09:33:44;96959.88;;;6.48;70.03
3150;BME280;32503;47.748;8.960;2022-12-07T09:36:11;96957.38;;;6.42;70.68
3150;BME280;32503;47.748;8.960;2022-12-07T09:38:38;96968.31;;;6.37;69.66
3150;BME280;32503;47.748;8.960;2022-12-07T09:41:06;96959.63;;;6.32;70.34
3150;BME280;32503;47.748;8.960;2022-12-07T09:43:36;96965.63;;;6.37;70.34
3150;BME280;32503;47.748;8.960;2022-12-07T09:46:05;96966.88;;;6.40;70.18
3150;BME280;32503;47.748;8.960;2022-12-07T09:48:36;96952.38;;;6.32;69.21
3150;BME280;32503;47.748;8.960;2022-12-07T09:51:14;96946.06;;;6.28;69.50
3150;BME280;32503;47.748;8.960;2022-12-07T09:53:43;96952.84;;;6.34;69.64
3150;BME280;32503;47.748;8.960;2022-12-07T09:56:13;96942.56;;;6.36;69.49
3150;BME280;32503;47.748;8.960;2022-12-07T09:58:42;96939.69;;;6.41;69.17
3150;BME280;32503;47.748;8.960;2022-12-07T10:01:14;96935.09;;;6.42;69.74
3150;BME280;32503;47.748;8.960;2022-12-07T10:03:47;96938.38;;;6.48;68.83
3150;BME280;32503;47.748;8.960;2022-12-07T10:06:15;96936.00;;;6.55;68.97
3150;BME280;32503;47.748;8.960;2022-12-07T10:08:42;96940.03;;;6.61;68.75
3150;BME280;32503;47.748;8.960;2022-12-07T10:11:10;96935.59;;;6.65;69.21
3150;BME280;32503;47.748;8.960;2022-12-07T10:13:41;96929.13;;;6.66;68.83
3150;BME280;32503;47.748;8.960;2022-12-07T10:16:35;96921.78;;;6.75;68.29
3150;BME280;32503;47.748;8.960;2022-12-07T10:19:22;96911.34;;;6.74;68.24
3150;BME280;32503;47.748;8.960;2022-12-07T10:22:11;96911.59;;;6.81;68.75
3150;BME280;32503;47.748;8.960;2022-12-07T10:24:40;96911.28;;;6.82;68.24
3150;BME280;32503;47.748;8.960;2022-12-07T10:27:19;96917.84;;;6.94;68.36
3150;BME280;32503;47.748;8.960;2022-12-07T10:29:51;96910.69;;;6.98;67.74
3150;BME280;32503;47.748;8.960;2022-12-07T10:32:31;96905.56;;;7.05;67.80
3150;BME280;32503;47.748;8.960;2022-12-07T10:35:21;96909.66;;;7.11;67.27
3150;BME280;32503;47.748;8.960;2022-12-07T10:37:50;96908.50;;;7.12;67.44
3150;BME280;32503;47.748;8.960;2022-12-07T10:40:29;96906.28;;;7.14;67.09
3150;BME280;32503;47.748;8.960;2022-12-07T10:43:18;96905.16;;;7.15;65.89
3150;BME280;32503;47.748;8.960;2022-12-07T10:46:25;96888.59;;;7.13;65.54
3150;BME280;32503;47.748;8.960;2022-12-07T10:49:04;96890.03;;;7.11;65.64
3150;BME280;32503;47.748;8.960;2022-12-07T10:51:42;96889.25;;;7.10;66.15
3150;BME280;32503;47.748;8.960;2022-12-07T10:54:20;96880.53;;;7.13;65.81
3150;BME280;32503;47.748;8.960;2022-12-07T10:57:07;96885.69;;;7.18;66.50
3150;BME280;32503;47.748;8.960;2022-12-07T11:00:04;96880.13;;;7.24;66.03
3150;BME280;32503;47.748;8.960;2022-12-07T11:03:05;96866.63;;;7.11;65.96
3150;BME280;32503;47.748;8.960;2022-12-07T11:05:42;96870.66;;;7.17;66.21
3150;BME280;32503;47.748;8.960;2022-12-07T11:08:20;96861.03;;;7.16;65.35
3150;BME280;32503;47.748;8.960;2022-12-07T11:10:54;96856.53;;;7.08;64.93
3150;BME280;32503;47.748;8.960;2022-12-07T11:13:33;96858.16;;;7.00;65.07
3150;BME280;32503;47.748;8.960;2022-12-07T11:16:28;96860.53;;;7.02;65.47
3150;BME280;32503;47.748;8.960;2022-12-07T11:19:12;96854.94;;;7.07;64.81
3150;BME280;32503;47.748;8.960;2022-12-07T11:21:50;96845.78;;;7.08;65.24
3150;BME280;32503;47.748;8.960;2022-12-07T11:24:30;96856.13;;;7.18;64.57
3150;BME280;32503;47.748;8.960;2022-12-07T11:27:15;96859.72;;;7.22;64.63
3150;BME280;32503;47.748;8.960;2022-12-07T11:30:00;96844.09;;;7.16;64.36
3150;BME280;32503;47.748;8.960;2022-12-07T11:32:49;96847.84;;;7.24;65.04
3150;BME280;32503;47.748;8.960;2022-12-07T11:35:30;96849.63;;;7.32;63.89
3150;BME280;32503;47.748;8.960;2022-12-07T11:38:01;96843.94;;;7.33;63.98
3150;BME280;32503;47.748;8.960;2022-12-07T11:40:34;96838.25;;;7.47;64.78
3150;BME280;32503;47.748;8.960;2022-12-07T11:43:09;96834.56;;;7.52;63.49
3150;BME280;32503;47.748;8.960;2022-12-07T11:45:42;96826.59;;;7.55;63.46
3150;BME280;32503;47.748;8.960;2022-12-07T11:48:17;96826.38;;;7.60;62.65
3150;BME280;32503;47.748;8.960;2022-12-07T11:50:52;96826.38;;;7.60;63.12
3150;BME280;32503;47.748;8.960;2022-12-07T11:53:25;96831.53;;;7.66;62.85
3150;BME280;32503;47.748;8.960;2022-12-07T11:55:57;96820.19;;;7.60;62.67
3150;BME280;32503;47.748;8.960;2022-12-07T11:58:51;96816.19;;;7.66;61.97
3150;BME280;32503;47.748;8.960;2022-12-07T12:01:39;96813.94;;;7.68;61.34
3150;BME280;32503;47.748;8.960;2022-12-07T12:04:26;96813.16;;;7.68;61.75
3150;BME280;32503;47.748;8.960;2022-12-07T12:06:55;96809.00;;;7.70;61.22
3150;BME280;32503;47.748;8.960;2022-12-07T12:09:28;96808.00;;;7.75;61.68
3150;BME280;32503;47.748;8.960;2022-12-07T12:12:32;96807.53;;;7.85;61.92
3150;BME280;32503;47.748;8.960;2022-12-07T12:15:16;96794.78;;;7.82;61.40
3150;BME280;32503;47.748;8.960;2022-12-07T12:18:11;96804.06;;;7.85;61.54
3150;BME280;32503;47.748;8.960;2022-12-07T12:20:46;96801.69;;;7.83;61.27
3150;BME280;32503;47.748;8.960;2022-12-07T12:23:20;96788.47;;;7.78;60.52
3150;BME280;32503;47.748;8.960;2022-12-07T12:25:49;96786.38;;;7.71;60.69
3150;BME280;32503;47.748;8.960;2022-12-07T12:28:26;96789.16;;;7.75;60.76
3150;BME280;32503;47.748;8.960;2022-12-07T12:31:07;96781.75;;;7.72;60.63
3150;BME280;32503;47.748;8.960;2022-12-07T12:33:36;96788.13;;;7.79;60.09
3150;BME280;32503;47.748;8.960;2022-12-07T12:36:45;96773.00;;;7.87;60.50
3150;BME280;32503;47.748;8.960;2022-12-07T12:39:15;96792.06;;;8.07;61.42
3150;BME280;32503;47.748;8.960;2022-12-07T12:42:00;96782.41;;;7.93;60.56
3150;BME280;32503;47.748;8.960;2022-12-07T12:45:18;96788.03;;;7.88;59.86
3150;BME280;32503;47.748;8.960;2022-12-07T12:47:58;96778.06;;;7.76;59.07
3150;BME280;32503;47.748;8.960;2022-12-07T12:50:28;96791.97;;;7.78;59.75
3150;BME280;32503;47.748;8.960;2022-12-07T12:53:16;96789.63;;;7.77;58.85
3150;BME280;32503;47.748;8.960;2022-12-07T12:56:25;96781.38;;;7.12;57.73
3150;BME280;32503;47.748;8.960;2022-12-07T12:59:22;96787.56;;;7.37;56.80
3150;BME280;32503;47.748;8.960;2022-12-07T13:01:50;96785.22;;;7.35;57.81
3150;BME280;32503;47.748;8.960;2022-12-07T13:04:48;96784.88;;;7.37;57.88
3150;BME280;32503;47.748;8.960;2022-12-07T13:07:56;96775.59;;;7.47;58.43
3150;BME280;32503;47.748;8.960;2022-12-07T13:10:40;96771.44;;;7.49;58.32
3150;BME280;32503;47.748;8.960;2022-12-07T13:13:35;96764.25;;;7.53;58.94
3150;BME280;32503;47.748;8.960;2022-12-07T13:16:48;96764.72;;;7.68;59.21
3150;BME280;32503;47.748;8.960;2022-12-07T13:19:57;96768.66;;;7.58;58.25
3150;BME280;32503;47.748;8.960;2022-12-07T13:22:51;96758.66;;;7.46;59.15
3150;BME280;32503;47.748;8.960;2022-12-07T13:25:33;96755.53;;;7.44;59.12
3150;BME280;32503;47.748;8.960;2022-12-07T13:28:13;96753.75;;;7.48;59.51
3150;BME280;32503;47.748;8.960;2022-12-07T13:30:50;96747.34;;;7.53;59.57
3150;BME280;32503;47.748;8.960;2022-12-07T13:33:21;96746.56;;;7.52;58.91
3150;BME280;32503;47.748;8.960;2022-12-07T13:35:48;96750.47;;;7.55;59.34
3150;BME280;32503;47.748;8.960;2022-12-07T13:38:29;96740.75;;;7.50;59.64
3150;BME280;32503;47.748;8.960;2022-12-07T13:41:04;96747.44;;;7.56;59.35
3150;BME280;32503;47.748;8.960;2022-12-07T13:43:45;96747.66;;;7.64;59.34
3150;BME280;32503;47.748;8.960;2022-12-07T13:46:15;96737.81;;;7.68;59.65
3150;BME280;32503;47.748;8.960;2022-12-07T13:48:47;96749.47;;;7.72;59.49
3150;BME280;32503;47.748;8.960;2022-12-07T13:51:20;96731.75;;;7.71;59.09
3150;BME280;32503;47.748;8.960;2022-12-07T13:53:49;96741.41;;;7.72;58.68